Arlington, Ohio
Current Conditions -  °F | °C
As of 5:53 PM on Saturday 20 Dec 2014 (Local Time) from KFDY Reporting Station
Overcast Overcast  
Wind Chill: -3°   Ceiling: 3000
Heat Index: -1°   Visibility: 8mi
Dew Point: -5°   Wind: 5mph
Humidity: 72%   Direction: 170°S
Pressure: 30.26"   Gusts: NA
Location:  40.89°N, 83.65°W
Report Text: KFDY 202253Z AUTO 17004KT 8SM OVC030 M01/M05 A3026 RMK AO2 SLP252 T10061050
Loading
Personal Weather Stations






























Interactive Weather Map New forecast layout! Learn more

10-Day Weather Forecast

Advertisements
Track Severe Weather on mobile